sensor_id;sensor_type;location;lat;lon;timestamp;P1;durP1;ratioP1;P2;durP2;ratioP2
58864;SDS011;45702;52.982;6.658;2022-09-09T00:04:36;48.47;;;20.02;;
58864;SDS011;45702;52.982;6.658;2022-09-09T00:09:35;38.30;;;18.58;;
58864;SDS011;45702;52.982;6.658;2022-09-09T00:12:11;43.85;;;19.33;;
58864;SDS011;45702;52.982;6.658;2022-09-09T00:14:54;41.33;;;17.92;;
58864;SDS011;45702;52.982;6.658;2022-09-09T00:20:44;41.97;;;18.63;;
58864;SDS011;45702;52.982;6.658;2022-09-09T00:22:53;39.17;;;17.30;;
58864;SDS011;45702;52.982;6.658;2022-09-09T00:28:36;40.97;;;17.73;;
58864;SDS011;45702;52.982;6.658;2022-09-09T00:31:20;47.03;;;18.63;;
58864;SDS011;45702;52.982;6.658;2022-09-09T00:33:50;37.55;;;18.33;;
58864;SDS011;45702;52.982;6.658;2022-09-09T00:36:26;41.25;;;17.98;;
58864;SDS011;45702;52.982;6.658;2022-09-09T00:38:57;38.85;;;17.85;;
58864;SDS011;45702;52.982;6.658;2022-09-09T00:41:30;39.55;;;17.65;;
58864;SDS011;45702;52.982;6.658;2022-09-09T00:44:32;39.40;;;17.45;;
58864;SDS011;45702;52.982;6.658;2022-09-09T00:49:45;44.58;;;19.00;;
58864;SDS011;45702;52.982;6.658;2022-09-09T00:55:05;36.78;;;16.60;;
58864;SDS011;45702;52.982;6.658;2022-09-09T00:57:35;31.38;;;16.67;;
58864;SDS011;45702;52.982;6.658;2022-09-09T01:11:25;43.00;;;17.10;;
58864;SDS011;45702;52.982;6.658;2022-09-09T01:14:00;33.75;;;16.73;;
58864;SDS011;45702;52.982;6.658;2022-09-09T01:16:43;40.08;;;17.55;;
58864;SDS011;45702;52.982;6.658;2022-09-09T01:19:10;37.90;;;18.17;;
58864;SDS011;45702;52.982;6.658;2022-09-09T01:21:55;35.60;;;17.23;;
58864;SDS011;45702;52.982;6.658;2022-09-09T01:24:36;37.00;;;17.45;;
58864;SDS011;45702;52.982;6.658;2022-09-09T01:27:10;35.60;;;17.55;;
58864;SDS011;45702;52.982;6.658;2022-09-09T01:29:37;38.92;;;17.42;;
58864;SDS011;45702;52.982;6.658;2022-09-09T01:35:32;39.40;;;17.35;;
58864;SDS011;45702;52.982;6.658;2022-09-09T01:38:02;38.33;;;17.80;;
58864;SDS011;45702;52.982;6.658;2022-09-09T01:40:28;42.97;;;17.42;;
58864;SDS011;45702;52.982;6.658;2022-09-09T01:42:54;39.90;;;17.23;;
58864;SDS011;45702;52.982;6.658;2022-09-09T01:45:20;42.75;;;17.65;;
58864;SDS011;45702;52.982;6.658;2022-09-09T01:47:47;36.75;;;16.65;;
58864;SDS011;45702;52.982;6.658;2022-09-09T01:50:14;39.17;;;16.15;;
58864;SDS011;45702;52.982;6.658;2022-09-09T01:52:41;38.75;;;16.52;;
58864;SDS011;45702;52.982;6.658;2022-09-09T01:55:10;38.33;;;16.38;;
58864;SDS011;45702;52.982;6.658;2022-09-09T02:00:11;37.43;;;16.47;;
58864;SDS011;45702;52.982;6.658;2022-09-09T02:07:54;34.88;;;16.08;;
58864;SDS011;45702;52.982;6.658;2022-09-09T02:10:29;33.65;;;15.70;;
58864;SDS011;45702;52.982;6.658;2022-09-09T02:13:04;36.83;;;17.15;;
58864;SDS011;45702;52.982;6.658;2022-09-09T02:18:06;34.97;;;16.10;;
58864;SDS011;45702;52.982;6.658;2022-09-09T02:23:01;31.50;;;15.13;;
58864;SDS011;45702;52.982;6.658;2022-09-09T02:25:28;32.70;;;14.88;;
58864;SDS011;45702;52.982;6.658;2022-09-09T02:27:54;29.40;;;14.48;;
58864;SDS011;45702;52.982;6.658;2022-09-09T02:30:23;29.98;;;14.57;;
58864;SDS011;45702;52.982;6.658;2022-09-09T02:32:50;31.98;;;13.55;;
58864;SDS011;45702;52.982;6.658;2022-09-09T02:35:22;29.05;;;14.00;;
58864;SDS011;45702;52.982;6.658;2022-09-09T02:37:50;25.23;;;12.02;;
58864;SDS011;45702;52.982;6.658;2022-09-09T02:40:20;28.48;;;12.60;;
58864;SDS011;45702;52.982;6.658;2022-09-09T02:42:47;30.30;;;11.60;;
58864;SDS011;45702;52.982;6.658;2022-09-09T02:45:16;28.40;;;11.02;;
58864;SDS011;45702;52.982;6.658;2022-09-09T02:50:50;24.60;;;11.57;;
58864;SDS011;45702;52.982;6.658;2022-09-09T02:53:39;22.08;;;9.93;;
58864;SDS011;45702;52.982;6.658;2022-09-09T02:56:16;26.75;;;10.65;;
58864;SDS011;45702;52.982;6.658;2022-09-09T02:58:46;24.63;;;10.75;;
58864;SDS011;45702;52.982;6.658;2022-09-09T03:01:12;26.70;;;10.75;;
58864;SDS011;45702;52.982;6.658;2022-09-09T03:03:37;25.50;;;10.95;;
58864;SDS011;45702;52.982;6.658;2022-09-09T03:06:03;24.17;;;10.75;;
58864;SDS011;45702;52.982;6.658;2022-09-09T03:08:30;27.15;;;11.02;;
58864;SDS011;45702;52.982;6.658;2022-09-09T03:10:57;24.83;;;10.63;;
58864;SDS011;45702;52.982;6.658;2022-09-09T03:13:26;27.20;;;12.18;;
58864;SDS011;45702;52.982;6.658;2022-09-09T03:15:52;26.85;;;11.65;;
58864;SDS011;45702;52.982;6.658;2022-09-09T03:18:17;29.25;;;12.25;;
58864;SDS011;45702;52.982;6.658;2022-09-09T03:20:43;25.23;;;11.27;;
58864;SDS011;45702;52.982;6.658;2022-09-09T03:23:09;24.98;;;11.40;;
58864;SDS011;45702;52.982;6.658;2022-09-09T03:25:34;24.80;;;11.18;;
58864;SDS011;45702;52.982;6.658;2022-09-09T03:28:01;25.77;;;10.85;;
58864;SDS011;45702;52.982;6.658;2022-09-09T03:30:26;29.13;;;11.27;;
58864;SDS011;45702;52.982;6.658;2022-09-09T03:32:52;27.27;;;10.68;;
58864;SDS011;45702;52.982;6.658;2022-09-09T03:35:19;25.00;;;10.90;;
58864;SDS011;45702;52.982;6.658;2022-09-09T03:37:45;23.98;;;9.82;;
58864;SDS011;45702;52.982;6.658;2022-09-09T03:40:11;23.00;;;9.90;;
58864;SDS011;45702;52.982;6.658;2022-09-09T03:42:37;20.90;;;10.05;;
58864;SDS011;45702;52.982;6.658;2022-09-09T03:45:04;24.17;;;10.80;;
58864;SDS011;45702;52.982;6.658;2022-09-09T03:47:31;23.45;;;10.60;;
58864;SDS011;45702;52.982;6.658;2022-09-09T03:49:57;22.45;;;9.98;;
58864;SDS011;45702;52.982;6.658;2022-09-09T03:52:22;29.33;;;11.05;;
58864;SDS011;45702;52.982;6.658;2022-09-09T03:54:51;26.48;;;10.55;;
58864;SDS011;45702;52.982;6.658;2022-09-09T03:57:18;21.63;;;9.82;;
58864;SDS011;45702;52.982;6.658;2022-09-09T03:59:44;22.92;;;9.90;;
58864;SDS011;45702;52.982;6.658;2022-09-09T04:02:10;19.27;;;9.68;;
58864;SDS011;45702;52.982;6.658;2022-09-09T04:04:36;19.50;;;9.68;;
58864;SDS011;45702;52.982;6.658;2022-09-09T04:07:03;19.88;;;9.05;;
58864;SDS011;45702;52.982;6.658;2022-09-09T04:09:33;20.00;;;9.23;;
58864;SDS011;45702;52.982;6.658;2022-09-09T04:11:59;21.38;;;9.73;;
58864;SDS011;45702;52.982;6.658;2022-09-09T04:14:25;20.67;;;10.02;;
58864;SDS011;45702;52.982;6.658;2022-09-09T04:16:53;21.63;;;10.70;;
58864;SDS011;45702;52.982;6.658;2022-09-09T04:19:22;26.45;;;11.32;;
58864;SDS011;45702;52.982;6.658;2022-09-09T04:21:48;24.45;;;12.18;;
58864;SDS011;45702;52.982;6.658;2022-09-09T04:24:16;26.40;;;11.88;;
58864;SDS011;45702;52.982;6.658;2022-09-09T04:26:42;28.17;;;12.98;;
58864;SDS011;45702;52.982;6.658;2022-09-09T04:29:08;28.10;;;13.27;;
58864;SDS011;45702;52.982;6.658;2022-09-09T04:31:34;36.38;;;14.77;;
58864;SDS011;45702;52.982;6.658;2022-09-09T04:34:00;29.00;;;13.57;;
58864;SDS011;45702;52.982;6.658;2022-09-09T04:36:31;32.33;;;14.68;;
58864;SDS011;45702;52.982;6.658;2022-09-09T04:38:57;32.53;;;14.55;;
58864;SDS011;45702;52.982;6.658;2022-09-09T04:41:23;34.35;;;14.80;;
58864;SDS011;45702;52.982;6.658;2022-09-09T04:43:49;29.45;;;14.25;;
58864;SDS011;45702;52.982;6.658;2022-09-09T04:46:14;32.58;;;15.23;;
58864;SDS011;45702;52.982;6.658;2022-09-09T04:48:42;42.13;;;15.98;;
58864;SDS011;45702;52.982;6.658;2022-09-09T04:51:09;35.25;;;15.82;;
58864;SDS011;45702;52.982;6.658;2022-09-09T04:53:38;35.45;;;15.98;;
58864;SDS011;45702;52.982;6.658;2022-09-09T04:56:11;35.17;;;15.13;;
58864;SDS011;45702;52.982;6.658;2022-09-09T04:58:38;32.38;;;15.50;;
58864;SDS011;45702;52.982;6.658;2022-09-09T05:03:34;33.20;;;16.00;;
58864;SDS011;45702;52.982;6.658;2022-09-09T05:06:10;40.28;;;15.85;;
58864;SDS011;45702;52.982;6.658;2022-09-09T05:08:37;41.10;;;16.77;;
58864;SDS011;45702;52.982;6.658;2022-09-09T05:11:12;35.42;;;15.95;;
58864;SDS011;45702;52.982;6.658;2022-09-09T05:13:46;38.67;;;16.15;;
58864;SDS011;45702;52.982;6.658;2022-09-09T05:16:12;38.67;;;16.00;;
58864;SDS011;45702;52.982;6.658;2022-09-09T05:18:39;37.35;;;15.30;;
58864;SDS011;45702;52.982;6.658;2022-09-09T05:21:05;33.25;;;16.10;;
58864;SDS011;45702;52.982;6.658;2022-09-09T05:23:32;40.50;;;15.77;;
58864;SDS011;45702;52.982;6.658;2022-09-09T05:26:00;33.83;;;14.88;;
58864;SDS011;45702;52.982;6.658;2022-09-09T05:28:27;31.58;;;14.63;;
58864;SDS011;45702;52.982;6.658;2022-09-09T05:30:59;31.60;;;14.43;;
58864;SDS011;45702;52.982;6.658;2022-09-09T05:33:33;33.15;;;14.70;;
58864;SDS011;45702;52.982;6.658;2022-09-09T05:36:01;31.83;;;14.30;;
58864;SDS011;45702;52.982;6.658;2022-09-09T05:38:28;32.75;;;14.30;;
58864;SDS011;45702;52.982;6.658;2022-09-09T05:40:55;31.75;;;14.38;;
58864;SDS011;45702;52.982;6.658;2022-09-09T05:43:22;31.23;;;15.07;;
58864;SDS011;45702;52.982;6.658;2022-09-09T05:45:48;35.15;;;15.07;;
58864;SDS011;45702;52.982;6.658;2022-09-09T05:48:27;33.40;;;14.40;;
58864;SDS011;45702;52.982;6.658;2022-09-09T05:50:55;29.00;;;13.68;;
58864;SDS011;45702;52.982;6.658;2022-09-09T05:53:20;30.35;;;14.77;;
58864;SDS011;45702;52.982;6.658;2022-09-09T05:55:46;29.70;;;14.02;;
58864;SDS011;45702;52.982;6.658;2022-09-09T05:58:12;30.77;;;13.80;;
58864;SDS011;45702;52.982;6.658;2022-09-09T06:00:39;30.08;;;14.13;;
58864;SDS011;45702;52.982;6.658;2022-09-09T06:03:05;30.40;;;14.02;;
58864;SDS011;45702;52.982;6.658;2022-09-09T06:05:30;30.75;;;14.23;;
58864;SDS011;45702;52.982;6.658;2022-09-09T06:07:56;30.35;;;14.68;;
58864;SDS011;45702;52.982;6.658;2022-09-09T06:10:22;34.15;;;14.80;;
58864;SDS011;45702;52.982;6.658;2022-09-09T06:12:48;30.63;;;14.18;;
58864;SDS011;45702;52.982;6.658;2022-09-09T06:15:13;29.52;;;14.48;;
58864;SDS011;45702;52.982;6.658;2022-09-09T06:17:39;35.88;;;15.85;;
58864;SDS011;45702;52.982;6.658;2022-09-09T06:20:06;35.58;;;15.57;;
58864;SDS011;45702;52.982;6.658;2022-09-09T06:22:34;31.75;;;14.77;;
58864;SDS011;45702;52.982;6.658;2022-09-09T06:24:59;29.90;;;14.52;;
58864;SDS011;45702;52.982;6.658;2022-09-09T06:27:27;29.40;;;14.23;;
58864;SDS011;45702;52.982;6.658;2022-09-09T06:29:53;32.17;;;14.48;;
58864;SDS011;45702;52.982;6.658;2022-09-09T06:32:19;28.60;;;13.90;;
58864;SDS011;45702;52.982;6.658;2022-09-09T06:34:44;30.13;;;13.77;;
58864;SDS011;45702;52.982;6.658;2022-09-09T06:37:10;27.42;;;13.45;;
58864;SDS011;45702;52.982;6.658;2022-09-09T06:39:36;29.35;;;14.27;;
58864;SDS011;45702;52.982;6.658;2022-09-09T06:42:02;31.85;;;14.20;;
58864;SDS011;45702;52.982;6.658;2022-09-09T06:44:28;32.13;;;14.43;;
58864;SDS011;45702;52.982;6.658;2022-09-09T06:47:00;30.17;;;14.65;;
58864;SDS011;45702;52.982;6.658;2022-09-09T06:50:08;30.90;;;13.48;;
58864;SDS011;45702;52.982;6.658;2022-09-09T06:52:35;31.55;;;13.82;;
58864;SDS011;45702;52.982;6.658;2022-09-09T06:55:01;28.45;;;13.02;;
58864;SDS011;45702;52.982;6.658;2022-09-09T06:57:27;26.33;;;12.88;;
58864;SDS011;45702;52.982;6.658;2022-09-09T06:59:53;24.40;;;12.07;;
58864;SDS011;45702;52.982;6.658;2022-09-09T07:02:19;25.92;;;12.52;;
58864;SDS011;45702;52.982;6.658;2022-09-09T07:04:45;22.83;;;11.95;;
58864;SDS011;45702;52.982;6.658;2022-09-09T07:07:10;27.40;;;12.32;;
58864;SDS011;45702;52.982;6.658;2022-09-09T07:09:38;30.05;;;13.65;;
58864;SDS011;45702;52.982;6.658;2022-09-09T07:12:05;23.63;;;12.20;;
58864;SDS011;45702;52.982;6.658;2022-09-09T07:14:31;24.58;;;12.00;;
58864;SDS011;45702;52.982;6.658;2022-09-09T07:16:59;24.45;;;12.52;;
58864;SDS011;45702;52.982;6.658;2022-09-09T07:19:25;25.88;;;11.68;;
58864;SDS011;45702;52.982;6.658;2022-09-09T07:21:50;25.33;;;11.82;;
58864;SDS011;45702;52.982;6.658;2022-09-09T07:24:16;20.90;;;11.27;;
58864;SDS011;45702;52.982;6.658;2022-09-09T07:26:42;22.88;;;11.70;;
58864;SDS011;45702;52.982;6.658;2022-09-09T07:29:09;19.48;;;10.50;;
58864;SDS011;45702;52.982;6.658;2022-09-09T07:31:35;21.75;;;10.32;;
58864;SDS011;45702;52.982;6.658;2022-09-09T07:34:04;21.50;;;10.30;;
58864;SDS011;45702;52.982;6.658;2022-09-09T07:36:31;30.13;;;11.75;;
58864;SDS011;45702;52.982;6.658;2022-09-09T07:38:59;22.85;;;11.18;;
58864;SDS011;45702;52.982;6.658;2022-09-09T07:43:54;18.90;;;10.38;;
58864;SDS011;45702;52.982;6.658;2022-09-09T07:46:21;19.63;;;10.13;;
58864;SDS011;45702;52.982;6.658;2022-09-09T07:48:50;18.83;;;10.30;;
58864;SDS011;45702;52.982;6.658;2022-09-09T07:51:28;21.33;;;10.40;;
58864;SDS011;45702;52.982;6.658;2022-09-09T07:54:06;17.15;;;9.50;;
58864;SDS011;45702;52.982;6.658;2022-09-09T07:56:34;20.90;;;10.32;;
58864;SDS011;45702;52.982;6.658;2022-09-09T07:59:01;25.98;;;9.77;;
58864;SDS011;45702;52.982;6.658;2022-09-09T08:03:53;23.65;;;10.60;;
58864;SDS011;45702;52.982;6.658;2022-09-09T08:06:27;24.25;;;10.15;;
58864;SDS011;45702;52.982;6.658;2022-09-09T08:08:55;19.33;;;10.18;;
58864;SDS011;45702;52.982;6.658;2022-09-09T08:11:22;21.05;;;9.70;;
58864;SDS011;45702;52.982;6.658;2022-09-09T08:13:49;22.88;;;9.70;;
58864;SDS011;45702;52.982;6.658;2022-09-09T08:16:17;24.30;;;10.30;;
58864;SDS011;45702;52.982;6.658;2022-09-09T08:18:48;20.88;;;10.38;;
58864;SDS011;45702;52.982;6.658;2022-09-09T08:21:16;18.63;;;11.32;;
58864;SDS011;45702;52.982;6.658;2022-09-09T08:23:44;20.55;;;11.02;;
58864;SDS011;45702;52.982;6.658;2022-09-09T08:26:12;24.90;;;12.45;;
58864;SDS011;45702;52.982;6.658;2022-09-09T08:28:40;18.33;;;11.18;;
58864;SDS011;45702;52.982;6.658;2022-09-09T08:31:13;25.10;;;11.60;;
58864;SDS011;45702;52.982;6.658;2022-09-09T08:33:41;23.05;;;11.55;;
58864;SDS011;45702;52.982;6.658;2022-09-09T08:36:09;23.80;;;12.00;;
58864;SDS011;45702;52.982;6.658;2022-09-09T08:38:37;26.05;;;11.35;;
58864;SDS011;45702;52.982;6.658;2022-09-09T08:41:09;21.15;;;11.23;;
58864;SDS011;45702;52.982;6.658;2022-09-09T08:43:48;19.35;;;10.98;;
58864;SDS011;45702;52.982;6.658;2022-09-09T08:48:45;19.60;;;10.70;;
58864;SDS011;45702;52.982;6.658;2022-09-09T08:51:19;21.08;;;11.13;;
58864;SDS011;45702;52.982;6.658;2022-09-09T08:53:46;18.17;;;10.48;;
58864;SDS011;45702;52.982;6.658;2022-09-09T08:56:21;24.67;;;11.35;;
58864;SDS011;45702;52.982;6.658;2022-09-09T08:58:50;18.65;;;10.93;;
58864;SDS011;45702;52.982;6.658;2022-09-09T09:12:19;18.65;;;10.68;;
58864;SDS011;45702;52.982;6.658;2022-09-09T09:14:48;17.23;;;9.70;;
58864;SDS011;45702;52.982;6.658;2022-09-09T09:19:44;17.58;;;9.65;;
58864;SDS011;45702;52.982;6.658;2022-09-09T09:22:16;18.30;;;9.00;;
58864;SDS011;45702;52.982;6.658;2022-09-09T09:24:55;19.30;;;9.23;;
58864;SDS011;45702;52.982;6.658;2022-09-09T09:27:25;18.35;;;8.13;;
58864;SDS011;45702;52.982;6.658;2022-09-09T09:29:54;20.55;;;7.88;;
58864;SDS011;45702;52.982;6.658;2022-09-09T09:32:22;14.32;;;7.63;;
58864;SDS011;45702;52.982;6.658;2022-09-09T09:34:56;21.70;;;8.38;;
58864;SDS011;45702;52.982;6.658;2022-09-09T09:37:26;17.90;;;7.28;;
58864;SDS011;45702;52.982;6.658;2022-09-09T09:39:55;17.45;;;7.72;;
58864;SDS011;45702;52.982;6.658;2022-09-09T09:42:20;14.95;;;6.30;;
58864;SDS011;45702;52.982;6.658;2022-09-09T09:44:47;19.30;;;6.25;;
58864;SDS011;45702;52.982;6.658;2022-09-09T09:47:20;18.80;;;5.85;;
58864;SDS011;45702;52.982;6.658;2022-09-09T09:49:57;15.70;;;6.03;;
58864;SDS011;45702;52.982;6.658;2022-09-09T09:52:28;16.33;;;5.93;;
58864;SDS011;45702;52.982;6.658;2022-09-09T09:54:55;17.88;;;6.05;;
58864;SDS011;45702;52.982;6.658;2022-09-09T09:57:27;21.95;;;6.35;;
58864;SDS011;45702;52.982;6.658;2022-09-09T10:00:17;15.40;;;5.30;;
58864;SDS011;45702;52.982;6.658;2022-09-09T10:02:45;17.27;;;5.47;;
58864;SDS011;45702;52.982;6.658;2022-09-09T10:05:16;14.20;;;4.78;;
58864;SDS011;45702;52.982;6.658;2022-09-09T10:08:33;15.50;;;4.70;;
58864;SDS011;45702;52.982;6.658;2022-09-09T10:19:14;11.45;;;4.07;;
58864;SDS011;45702;52.982;6.658;2022-09-09T10:21:57;12.63;;;3.50;;
58864;SDS011;45702;52.982;6.658;2022-09-09T10:24:37;13.57;;;3.45;;
58864;SDS011;45702;52.982;6.658;2022-09-09T10:33:09;13.23;;;3.85;;
58864;SDS011;45702;52.982;6.658;2022-09-09T10:38:42;14.32;;;3.90;;
58864;SDS011;45702;52.982;6.658;2022-09-09T10:41:12;15.88;;;3.28;;
58864;SDS011;45702;52.982;6.658;2022-09-09T10:49:57;15.48;;;3.83;;
58864;SDS011;45702;52.982;6.658;2022-09-09T10:52:22;15.88;;;3.50;;
58864;SDS011;45702;52.982;6.658;2022-09-09T10:55:19;11.98;;;3.60;;
58864;SDS011;45702;52.982;6.658;2022-09-09T10:57:50;11.65;;;4.10;;
58864;SDS011;45702;52.982;6.658;2022-09-09T11:03:04;10.55;;;3.60;;
58864;SDS011;45702;52.982;6.658;2022-09-09T11:08:28;14.18;;;3.22;;
58864;SDS011;45702;52.982;6.658;2022-09-09T11:11:03;11.73;;;3.40;;
58864;SDS011;45702;52.982;6.658;2022-09-09T11:13:53;11.27;;;3.10;;
58864;SDS011;45702;52.982;6.658;2022-09-09T11:19:39;7.63;;;2.30;;
58864;SDS011;45702;52.982;6.658;2022-09-09T11:22:17;9.88;;;2.63;;
58864;SDS011;45702;52.982;6.658;2022-09-09T11:24:48;10.23;;;2.70;;
58864;SDS011;45702;52.982;6.658;2022-09-09T11:27:26;8.70;;;2.42;;
58864;SDS011;45702;52.982;6.658;2022-09-09T11:38:25;10.80;;;2.92;;
58864;SDS011;45702;52.982;6.658;2022-09-09T11:40:56;11.15;;;2.60;;
58864;SDS011;45702;52.982;6.658;2022-09-09T11:46:03;13.18;;;2.80;;
58864;SDS011;45702;52.982;6.658;2022-09-09T11:48:42;12.32;;;3.00;;
58864;SDS011;45702;52.982;6.658;2022-09-09T11:51:12;9.95;;;2.80;;
58864;SDS011;45702;52.982;6.658;2022-09-09T11:53:54;11.38;;;3.20;;
58864;SDS011;45702;52.982;6.658;2022-09-09T11:56:29;17.38;;;3.10;;
58864;SDS011;45702;52.982;6.658;2022-09-09T12:01:30;10.18;;;2.90;;
58864;SDS011;45702;52.982;6.658;2022-09-09T12:09:27;10.68;;;2.53;;
58864;SDS011;45702;52.982;6.658;2022-09-09T12:12:07;10.90;;;2.58;;
58864;SDS011;45702;52.982;6.658;2022-09-09T12:14:57;9.88;;;2.83;;
58864;SDS011;45702;52.982;6.658;2022-09-09T12:17:25;9.68;;;2.35;;
58864;SDS011;45702;52.982;6.658;2022-09-09T12:25:56;8.07;;;2.55;;
58864;SDS011;45702;52.982;6.658;2022-09-09T12:34:17;12.88;;;2.90;;
58864;SDS011;45702;52.982;6.658;2022-09-09T12:37:11;13.82;;;3.13;;
58864;SDS011;45702;52.982;6.658;2022-09-09T12:39:51;7.72;;;2.20;;
58864;SDS011;45702;52.982;6.658;2022-09-09T12:42:24;7.70;;;2.75;;
58864;SDS011;45702;52.982;6.658;2022-09-09T12:44:58;14.68;;;2.95;;
58864;SDS011;45702;52.982;6.658;2022-09-09T12:47:29;12.63;;;2.80;;
58864;SDS011;45702;52.982;6.658;2022-09-09T12:49:56;7.60;;;2.25;;
58864;SDS011;45702;52.982;6.658;2022-09-09T12:52:29;11.40;;;2.50;;
58864;SDS011;45702;52.982;6.658;2022-09-09T12:54:59;13.80;;;2.85;;
58864;SDS011;45702;52.982;6.658;2022-09-09T12:57:29;10.93;;;2.50;;
58864;SDS011;45702;52.982;6.658;2022-09-09T13:00:04;8.38;;;2.55;;
58864;SDS011;45702;52.982;6.658;2022-09-09T13:02:34;9.68;;;2.05;;
58864;SDS011;45702;52.982;6.658;2022-09-09T13:05:13;7.93;;;2.10;;
58864;SDS011;45702;52.982;6.658;2022-09-09T13:07:41;9.98;;;2.30;;
58864;SDS011;45702;52.982;6.658;2022-09-09T13:10:10;7.80;;;2.13;;
58864;SDS011;45702;52.982;6.658;2022-09-09T13:12:37;8.98;;;2.40;;
58864;SDS011;45702;52.982;6.658;2022-09-09T13:15:04;6.97;;;2.75;;
58864;SDS011;45702;52.982;6.658;2022-09-09T13:17:48;9.38;;;2.47;;
58864;SDS011;45702;52.982;6.658;2022-09-09T13:20:17;8.73;;;2.20;;
58864;SDS011;45702;52.982;6.658;2022-09-09T13:22:43;8.57;;;1.70;;
58864;SDS011;45702;52.982;6.658;2022-09-09T13:27:36;8.95;;;1.80;;
58864;SDS011;45702;52.982;6.658;2022-09-09T13:30:20;6.57;;;1.98;;
58864;SDS011;45702;52.982;6.658;2022-09-09T13:36:26;6.60;;;2.33;;
58864;SDS011;45702;52.982;6.658;2022-09-09T13:38:52;6.57;;;2.80;;
58864;SDS011;45702;52.982;6.658;2022-09-09T13:41:25;8.40;;;3.08;;
58864;SDS011;45702;52.982;6.658;2022-09-09T13:43:56;9.57;;;2.80;;
58864;SDS011;45702;52.982;6.658;2022-09-09T13:46:35;9.43;;;3.20;;
58864;SDS011;45702;52.982;6.658;2022-09-09T13:51:36;14.38;;;3.30;;
58864;SDS011;45702;52.982;6.658;2022-09-09T13:54:10;12.93;;;3.20;;
58864;SDS011;45702;52.982;6.658;2022-09-09T13:56:38;9.35;;;3.15;;
58864;SDS011;45702;52.982;6.658;2022-09-09T13:59:05;10.05;;;4.07;;
58864;SDS011;45702;52.982;6.658;2022-09-09T14:01:34;8.95;;;3.40;;
58864;SDS011;45702;52.982;6.658;2022-09-09T14:04:00;13.32;;;3.88;;
58864;SDS011;45702;52.982;6.658;2022-09-09T14:06:26;8.63;;;3.58;;
58864;SDS011;45702;52.982;6.658;2022-09-09T14:08:52;11.20;;;3.90;;
58864;SDS011;45702;52.982;6.658;2022-09-09T14:11:19;12.88;;;4.43;;
58864;SDS011;45702;52.982;6.658;2022-09-09T14:13:46;12.30;;;4.50;;
58864;SDS011;45702;52.982;6.658;2022-09-09T14:16:16;14.23;;;4.60;;
58864;SDS011;45702;52.982;6.658;2022-09-09T14:18:42;17.75;;;4.35;;
58864;SDS011;45702;52.982;6.658;2022-09-09T14:21:09;14.70;;;3.80;;
58864;SDS011;45702;52.982;6.658;2022-09-09T14:23:36;11.98;;;4.28;;
58864;SDS011;45702;52.982;6.658;2022-09-09T14:26:03;10.98;;;3.92;;
58864;SDS011;45702;52.982;6.658;2022-09-09T14:28:29;16.67;;;4.38;;
58864;SDS011;45702;52.982;6.658;2022-09-09T14:30:58;11.23;;;3.47;;
58864;SDS011;45702;52.982;6.658;2022-09-09T14:33:28;10.00;;;3.00;;
58864;SDS011;45702;52.982;6.658;2022-09-09T14:36:01;6.90;;;2.50;;
58864;SDS011;45702;52.982;6.658;2022-09-09T14:38:29;6.43;;;2.40;;
58864;SDS011;45702;52.982;6.658;2022-09-09T14:40:56;8.48;;;2.65;;
58864;SDS011;45702;52.982;6.658;2022-09-09T14:43:23;6.93;;;2.70;;
58864;SDS011;45702;52.982;6.658;2022-09-09T14:45:49;8.25;;;2.78;;
58864;SDS011;45702;52.982;6.658;2022-09-09T14:48:16;9.32;;;3.28;;
58864;SDS011;45702;52.982;6.658;2022-09-09T14:50:42;5.57;;;2.15;;
58864;SDS011;45702;52.982;6.658;2022-09-09T14:53:08;5.43;;;2.20;;
58864;SDS011;45702;52.982;6.658;2022-09-09T14:55:35;4.55;;;1.38;;
58864;SDS011;45702;52.982;6.658;2022-09-09T14:58:02;3.13;;;1.20;;
58864;SDS011;45702;52.982;6.658;2022-09-09T15:00:28;3.78;;;1.58;;
58864;SDS011;45702;52.982;6.658;2022-09-09T15:02:54;6.57;;;1.42;;
58864;SDS011;45702;52.982;6.658;2022-09-09T15:05:20;4.63;;;1.50;;
58864;SDS011;45702;52.982;6.658;2022-09-09T15:07:47;3.72;;;1.77;;
58864;SDS011;45702;52.982;6.658;2022-09-09T15:10:13;7.53;;;1.98;;
58864;SDS011;45702;52.982;6.658;2022-09-09T15:12:39;4.57;;;2.00;;
58864;SDS011;45702;52.982;6.658;2022-09-09T15:15:07;7.53;;;2.33;;
58864;SDS011;45702;52.982;6.658;2022-09-09T15:17:33;6.03;;;2.42;;
58864;SDS011;45702;52.982;6.658;2022-09-09T15:19:58;7.25;;;2.60;;
58864;SDS011;45702;52.982;6.658;2022-09-09T15:22:24;6.43;;;2.60;;
58864;SDS011;45702;52.982;6.658;2022-09-09T15:24:50;4.40;;;2.00;;
58864;SDS011;45702;52.982;6.658;2022-09-09T15:27:15;8.20;;;2.50;;
58864;SDS011;45702;52.982;6.658;2022-09-09T15:29:42;5.82;;;2.30;;
58864;SDS011;45702;52.982;6.658;2022-09-09T15:32:09;5.70;;;1.95;;
58864;SDS011;45702;52.982;6.658;2022-09-09T15:34:34;5.68;;;1.98;;
58864;SDS011;45702;52.982;6.658;2022-09-09T15:37:00;6.72;;;2.20;;
58864;SDS011;45702;52.982;6.658;2022-09-09T15:39:26;4.78;;;2.00;;
58864;SDS011;45702;52.982;6.658;2022-09-09T15:41:51;6.95;;;2.40;;
58864;SDS011;45702;52.982;6.658;2022-09-09T15:44:17;4.53;;;2.10;;
58864;SDS011;45702;52.982;6.658;2022-09-09T15:46:50;6.07;;;2.05;;
58864;SDS011;45702;52.982;6.658;2022-09-09T15:49:22;5.75;;;2.35;;
58864;SDS011;45702;52.982;6.658;2022-09-09T15:51:54;5.55;;;2.17;;
58864;SDS011;45702;52.982;6.658;2022-09-09T15:54:23;4.95;;;2.28;;
58864;SDS011;45702;52.982;6.658;2022-09-09T15:56:51;4.80;;;2.25;;
58864;SDS011;45702;52.982;6.658;2022-09-09T15:59:19;6.35;;;2.20;;
58864;SDS011;45702;52.982;6.658;2022-09-09T16:01:45;6.65;;;2.33;;
58864;SDS011;45702;52.982;6.658;2022-09-09T16:04:11;8.48;;;2.30;;
58864;SDS011;45702;52.982;6.658;2022-09-09T16:06:37;7.55;;;2.40;;
58864;SDS011;45702;52.982;6.658;2022-09-09T16:09:04;6.00;;;2.40;;
58864;SDS011;45702;52.982;6.658;2022-09-09T16:11:32;5.93;;;2.33;;
58864;SDS011;45702;52.982;6.658;2022-09-09T16:14:00;7.07;;;2.47;;
58864;SDS011;45702;52.982;6.658;2022-09-09T16:16:28;6.47;;;3.08;;
58864;SDS011;45702;52.982;6.658;2022-09-09T16:18:55;8.70;;;3.00;;
58864;SDS011;45702;52.982;6.658;2022-09-09T16:21:56;9.05;;;3.22;;
58864;SDS011;45702;52.982;6.658;2022-09-09T16:24:16;9.25;;;3.20;;
58864;SDS011;45702;52.982;6.658;2022-09-09T16:26:44;10.10;;;3.00;;
58864;SDS011;45702;52.982;6.658;2022-09-09T16:29:13;7.18;;;3.40;;
58864;SDS011;45702;52.982;6.658;2022-09-09T16:31:40;7.28;;;3.38;;
58864;SDS011;45702;52.982;6.658;2022-09-09T16:34:06;7.38;;;3.20;;
58864;SDS011;45702;52.982;6.658;2022-09-09T16:36:33;6.75;;;3.03;;
58864;SDS011;45702;52.982;6.658;2022-09-09T16:39:01;9.98;;;3.42;;
58864;SDS011;45702;52.982;6.658;2022-09-09T16:41:30;5.68;;;3.20;;
58864;SDS011;45702;52.982;6.658;2022-09-09T16:43:57;8.13;;;3.00;;
58864;SDS011;45702;52.982;6.658;2022-09-09T16:46:24;7.90;;;2.92;;
58864;SDS011;45702;52.982;6.658;2022-09-09T16:48:52;6.35;;;2.88;;
58864;SDS011;45702;52.982;6.658;2022-09-09T16:51:21;6.15;;;2.60;;
58864;SDS011;45702;52.982;6.658;2022-09-09T16:53:52;5.90;;;2.83;;
58864;SDS011;45702;52.982;6.658;2022-09-09T16:56:19;6.25;;;2.83;;
58864;SDS011;45702;52.982;6.658;2022-09-09T16:58:56;7.47;;;2.90;;
58864;SDS011;45702;52.982;6.658;2022-09-09T17:01:27;10.70;;;2.88;;
58864;SDS011;45702;52.982;6.658;2022-09-09T17:03:56;10.88;;;3.45;;
58864;SDS011;45702;52.982;6.658;2022-09-09T17:06:23;8.55;;;2.70;;
58864;SDS011;45702;52.982;6.658;2022-09-09T17:08:57;8.50;;;3.33;;